To NAV CANADA Home Page Login to a new session Search on AWWS site Feedback and Comments Disclaimer Vers la page française équivalente Tips FAQ What's new on the site To the Forecasts and Observations / NOTAM section To "File a Flight Plan" website Publications and other links Update of the User's profile FIC Telephone Numbers My Weather Data Folder Route Weather Data Regional Weather Data Local Weather Data To the Forecasts and Observations / NOTAM section
Request Generated 01/21/2017 at 02:05:56 UTC . Weather information available at that time is displayed.

METAR/TAF

DEASE LAKE/BC    (show WxCam)

SPECI CYDL 210204Z AUTO 20004KT 9SM OVC027 M14/M16 A2946 RMK SLP023=
METAR CYDL 210200Z AUTO 21005KT 9SM -SN OVC027 M14/M16 A2946 RMK
SLP023=
SPECI CYDL 210147Z AUTO 22007KT 9SM -SN OVC027 M14/M16 A2946 RMK
SLP023=
SPECI CYDL 210138Z AUTO 22006KT 9SM OVC027 M14/M16 A2946 RMK SLP022=
METAR CYDL 210100Z AUTO 23007KT 9SM -SN OVC027 M13/M15 A2945 RMK
SLP017=
METAR CYDL 210000Z AUTO 20003KT 9SM -SN OVC029 M13/M15 A2943 RMK
SLP011=

TAF CYDL 202338Z 2100/2103 VRB03KT P6SM -SN BKN030
BECMG 2101/2103 P6SM NSW SCT030
RMK FCST BASED ON AUTO OBS. NXT FCST WILL BE ISSUED AT 211645Z=
Your time UTC time
Weather data provided by Environment Canada and NAV CANADA